createdAt,value
2022-12-28T00:01:22.878Z,6.93
2022-12-28T00:03:50.230Z,6.96
2022-12-28T00:06:17.689Z,6.45
2022-12-28T00:08:44.401Z,6.83
2022-12-28T00:11:26.547Z,7.24
2022-12-28T00:13:59.022Z,7.14
2022-12-28T00:16:28.484Z,7.17
2022-12-28T00:18:56.164Z,6.97
2022-12-28T00:21:23.329Z,7.17
2022-12-28T00:23:54.112Z,7.06
2022-12-28T00:26:26.193Z,7.34
2022-12-28T00:28:56.911Z,7.12
2022-12-28T00:31:28.429Z,7.27
2022-12-28T00:33:54.931Z,7.14
2022-12-28T00:36:21.458Z,7.30
2022-12-28T00:38:47.871Z,6.90
2022-12-28T00:41:14.322Z,7.34
2022-12-28T00:43:40.758Z,7.11
2022-12-28T00:46:07.316Z,7.26
2022-12-28T00:48:33.861Z,7.27
2022-12-28T00:51:15.176Z,7.07
2022-12-28T00:53:42.353Z,7.29
2022-12-28T00:56:11.847Z,6.82
2022-12-28T00:58:38.633Z,7.09
2022-12-28T01:01:06.713Z,7.37
2022-12-28T01:03:33.221Z,7.12
2022-12-28T01:05:59.636Z,7.16
2022-12-28T01:08:26.048Z,7.31
2022-12-28T01:10:52.505Z,7.34
2022-12-28T01:13:18.976Z,6.95
2022-12-28T01:15:45.414Z,7.29
2022-12-28T01:18:12.748Z,7.04
2022-12-28T01:20:40.643Z,7.26
2022-12-28T01:23:07.270Z,6.73
2022-12-28T01:25:34.357Z,7.08
2022-12-28T01:28:00.969Z,7.22
2022-12-28T01:30:27.497Z,6.66
2022-12-28T01:32:53.945Z,7.11
2022-12-28T01:35:20.382Z,6.90
2022-12-28T01:37:46.803Z,7.01
2022-12-28T01:40:15.724Z,7.06
2022-12-28T01:42:42.163Z,6.78
2022-12-28T01:45:20.057Z,6.95
2022-12-28T01:47:49.332Z,7.01
2022-12-28T01:50:21.176Z,7.15
2022-12-28T01:52:59.349Z,6.98
2022-12-28T01:55:30.085Z,6.98
2022-12-28T01:58:03.329Z,6.88
2022-12-28T02:00:29.846Z,7.05
2022-12-28T02:03:05.260Z,6.99
2022-12-28T02:05:38.351Z,7.10
2022-12-28T02:08:10.831Z,7.03
2022-12-28T02:10:43.930Z,7.26
2022-12-28T02:13:17.026Z,6.86
2022-12-28T02:15:44.193Z,7.13
2022-12-28T02:18:12.116Z,7.28
2022-12-28T02:21:17.171Z,7.16
2022-12-28T02:24:07.876Z,7.06
2022-12-28T02:26:47.302Z,7.30
2022-12-28T02:29:43.448Z,7.32
2022-12-28T02:32:39.497Z,7.32
2022-12-28T02:35:24.040Z,7.16
2022-12-28T02:38:09.311Z,7.24
2022-12-28T02:40:42.413Z,7.29
2022-12-28T02:43:08.960Z,7.13
2022-12-28T02:46:02.587Z,7.50
2022-12-28T02:49:00.979Z,7.40
2022-12-28T02:52:06.844Z,7.12
2022-12-28T02:55:24.049Z,7.27
2022-12-28T02:57:56.207Z,7.12
2022-12-28T03:00:25.847Z,7.34
2022-12-28T03:02:58.169Z,7.01
2022-12-28T03:06:04.073Z,7.34
2022-12-28T03:08:50.835Z,7.21
2022-12-28T03:11:22.574Z,7.21
2022-12-28T03:13:56.843Z,7.38
2022-12-28T03:16:57.833Z,7.35
2022-12-28T03:19:50.275Z,7.22
2022-12-28T03:22:37.979Z,7.30
2022-12-28T03:25:35.359Z,7.15
2022-12-28T03:28:24.149Z,7.41
2022-12-28T03:31:06.466Z,7.52
2022-12-28T03:33:42.101Z,7.70
2022-12-28T03:36:20.299Z,7.35
2022-12-28T03:39:11.563Z,7.63
2022-12-28T03:41:42.851Z,7.69
2022-12-28T03:44:16.142Z,7.56
2022-12-28T03:47:11.181Z,7.44
2022-12-28T03:49:38.393Z,7.68
2022-12-28T03:52:06.498Z,7.46
2022-12-28T03:54:33.010Z,7.44
2022-12-28T03:56:59.592Z,7.51
2022-12-28T03:59:25.990Z,7.60
2022-12-28T04:01:52.523Z,7.36
2022-12-28T04:04:19.004Z,7.75
2022-12-28T04:06:45.462Z,7.50
2022-12-28T04:09:11.841Z,7.80
2022-12-28T04:11:38.306Z,7.78
2022-12-28T04:14:10.387Z,7.75
2022-12-28T04:16:37.587Z,7.65
2022-12-28T04:19:04.163Z,7.50
2022-12-28T04:21:30.550Z,7.88
2022-12-28T04:23:56.953Z,7.70
2022-12-28T04:26:23.392Z,7.83
2022-12-28T04:28:49.841Z,7.96
2022-12-28T04:31:16.274Z,7.75
2022-12-28T04:33:42.746Z,7.58
2022-12-28T04:36:12.805Z,7.83
2022-12-28T04:38:40.170Z,7.85
2022-12-28T04:41:08.466Z,7.96
2022-12-28T04:43:35.223Z,7.79
2022-12-28T04:46:04.536Z,8.12
2022-12-28T04:48:31.597Z,7.93
2022-12-28T04:50:58.337Z,7.85
2022-12-28T04:53:24.853Z,7.59
2022-12-28T04:55:51.258Z,7.69
2022-12-28T04:58:17.722Z,7.68
2022-12-28T05:00:44.381Z,7.62
2022-12-28T05:03:11.221Z,7.77
2022-12-28T05:05:37.793Z,8.00
2022-12-28T05:08:04.409Z,7.56
2022-12-28T05:10:30.906Z,7.78
2022-12-28T05:12:57.309Z,7.88
2022-12-28T05:15:23.756Z,7.89
2022-12-28T05:17:50.432Z,7.98
2022-12-28T05:20:18.050Z,8.03
2022-12-28T05:22:44.560Z,7.93
2022-12-28T05:25:11.006Z,7.84
2022-12-28T05:27:37.432Z,8.20
2022-12-28T05:30:04.236Z,7.73
2022-12-28T05:32:30.609Z,8.15
2022-12-28T05:34:57.044Z,7.89
2022-12-28T05:37:23.459Z,7.96
2022-12-28T05:39:49.919Z,8.11
2022-12-28T05:42:16.341Z,8.12
2022-12-28T05:44:42.735Z,8.09
2022-12-28T05:47:09.240Z,7.91
2022-12-28T05:49:35.672Z,8.15
2022-12-28T05:52:02.131Z,7.92
2022-12-28T05:54:28.528Z,7.86
2022-12-28T05:56:54.922Z,8.34
2022-12-28T05:59:21.455Z,8.39
2022-12-28T06:01:48.023Z,8.14
2022-12-28T06:04:19.654Z,8.19
2022-12-28T06:06:47.236Z,8.11
2022-12-28T06:09:14.109Z,8.37
2022-12-28T06:11:40.534Z,8.17
2022-12-28T06:14:07.356Z,8.48
2022-12-28T06:16:40.660Z,8.52
2022-12-28T06:19:10.276Z,8.27
2022-12-28T06:21:39.166Z,8.43
2022-12-28T06:24:07.199Z,8.27
2022-12-28T06:26:36.049Z,8.38
2022-12-28T06:29:02.592Z,8.26
2022-12-28T06:31:34.650Z,8.30
2022-12-28T06:34:02.712Z,8.31
2022-12-28T06:36:32.225Z,8.82
2022-12-28T06:38:59.978Z,8.54
2022-12-28T06:41:27.187Z,8.01
2022-12-28T06:43:54.879Z,8.27
2022-12-28T06:46:24.022Z,8.70
2022-12-28T06:48:51.064Z,8.61
2022-12-28T06:51:23.323Z,8.62
2022-12-28T06:53:51.624Z,8.00
2022-12-28T06:56:21.014Z,8.68
2022-12-28T06:58:49.295Z,8.32
2022-12-28T07:01:31.988Z,8.91
2022-12-28T07:04:00.129Z,8.08
2022-12-28T07:06:28.645Z,8.37
2022-12-28T07:09:04.377Z,8.83
2022-12-28T07:11:30.952Z,8.70
2022-12-28T07:13:57.834Z,8.97
2022-12-28T07:16:25.986Z,8.31
2022-12-28T07:18:52.693Z,8.18
2022-12-28T07:21:22.532Z,8.55
2022-12-28T07:23:51.457Z,8.13
2022-12-28T07:26:22.945Z,8.48
2022-12-28T07:28:51.953Z,8.89
2022-12-28T07:31:35.737Z,8.27
2022-12-28T07:34:04.794Z,8.63
2022-12-28T07:36:32.631Z,7.94
2022-12-28T07:39:00.296Z,8.47
2022-12-28T07:41:29.792Z,8.84
2022-12-28T07:43:56.598Z,8.33
2022-12-28T07:46:28.468Z,8.31
2022-12-28T07:48:56.897Z,8.35
2022-12-28T07:51:27.119Z,8.76
2022-12-28T07:53:54.916Z,9.05
2022-12-28T07:56:22.727Z,8.99
2022-12-28T08:01:18.193Z,8.88
2022-12-28T08:03:45.538Z,9.08
2022-12-28T08:06:13.514Z,8.68
2022-12-28T08:08:42.679Z,8.17
2022-12-28T08:11:12.144Z,8.88
2022-12-28T08:13:42.043Z,8.93
2022-12-28T08:16:11.674Z,9.06
2022-12-28T08:18:38.471Z,9.14
2022-12-28T08:21:07.631Z,8.66
2022-12-28T08:23:34.077Z,8.68
2022-12-28T08:26:15.080Z,8.92
2022-12-28T08:28:43.315Z,8.46
2022-12-28T08:31:15.632Z,8.53
2022-12-28T08:33:42.302Z,8.77
2022-12-28T08:36:09.693Z,8.88
2022-12-28T08:38:37.922Z,9.09
2022-12-28T08:41:06.941Z,9.26
2022-12-28T08:43:34.516Z,8.95
2022-12-28T08:46:05.555Z,9.37
2022-12-28T08:48:33.558Z,8.69
2022-12-28T08:51:08.721Z,8.91
2022-12-28T08:53:36.363Z,9.25
2022-12-28T08:56:10.833Z,8.83
2022-12-28T08:58:39.097Z,9.50
2022-12-28T09:01:12.834Z,9.49
2022-12-28T09:03:42.204Z,9.06
2022-12-28T09:06:12.038Z,8.93
2022-12-28T09:08:39.309Z,9.12
2022-12-28T09:11:08.611Z,9.13
2022-12-28T09:13:35.680Z,9.43
2022-12-28T09:16:05.007Z,9.75
2022-12-28T09:18:31.883Z,9.09
2022-12-28T09:21:04.964Z,9.33
2022-12-28T09:23:31.385Z,9.22
2022-12-28T09:26:04.192Z,9.75
2022-12-28T09:28:30.651Z,9.41
2022-12-28T09:30:57.130Z,9.10
2022-12-28T09:34:15.351Z,9.77
2022-12-28T09:36:38.070Z,9.42
2022-12-28T09:39:07.326Z,9.55
2022-12-28T09:41:51.101Z,9.20
2022-12-28T09:44:32.197Z,9.06
2022-12-28T09:47:17.467Z,9.34
2022-12-28T09:50:01.768Z,9.46
2022-12-28T09:52:36.663Z,9.61
2022-12-28T09:55:12.369Z,8.97
2022-12-28T09:57:43.138Z,9.95
2022-12-28T10:00:18.153Z,10.08
2022-12-28T10:02:49.802Z,9.50
2022-12-28T10:05:16.647Z,9.87
2022-12-28T10:07:43.291Z,9.84
2022-12-28T10:10:16.172Z,9.99
2022-12-28T10:12:43.686Z,9.45
2022-12-28T10:15:14.791Z,9.29
2022-12-28T10:17:42.373Z,10.03
2022-12-28T10:20:20.304Z,10.12
2022-12-28T10:22:51.966Z,9.81
2022-12-28T10:25:21.982Z,9.78
2022-12-28T10:27:49.617Z,9.61
2022-12-28T10:30:29.656Z,9.89
2022-12-28T10:33:02.940Z,9.97
2022-12-28T10:35:48.287Z,10.32
2022-12-28T10:38:23.148Z,10.65
2022-12-28T10:41:17.087Z,9.73
2022-12-28T10:44:21.343Z,9.94
2022-12-28T10:46:51.323Z,10.37
2022-12-28T10:49:17.926Z,9.95
2022-12-28T10:51:59.797Z,10.45
2022-12-28T10:54:27.614Z,9.77
2022-12-28T10:56:54.815Z,9.74
2022-12-28T10:59:24.365Z,10.32
2022-12-28T11:01:50.947Z,10.37
2022-12-28T11:04:21.690Z,10.74
2022-12-28T11:06:52.566Z,10.27
2022-12-28T11:09:21.827Z,10.68
2022-12-28T11:11:50.374Z,10.39
2022-12-28T11:14:35.293Z,10.29
2022-12-28T11:17:20.061Z,10.18
2022-12-28T11:19:48.937Z,10.21
2022-12-28T11:22:24.172Z,10.39
2022-12-28T11:24:50.940Z,10.93
2022-12-28T11:27:23.358Z,10.81
2022-12-28T11:29:53.154Z,10.56
2022-12-28T11:32:38.541Z,11.27
2022-12-28T11:35:06.358Z,10.95
2022-12-28T11:37:32.810Z,10.58
2022-12-28T11:39:59.308Z,11.29
2022-12-28T11:42:41.805Z,10.92
2022-12-28T11:45:46.985Z,10.74
2022-12-28T11:48:38.336Z,11.23
2022-12-28T11:51:05.737Z,10.75
2022-12-28T11:53:32.117Z,10.35
2022-12-28T11:56:01.469Z,10.79
2022-12-28T11:58:30.866Z,10.60
2022-12-28T12:01:00.083Z,10.44
2022-12-28T12:03:58.979Z,10.75
2022-12-28T12:06:44.077Z,10.90
2022-12-28T12:09:25.714Z,10.55
2022-12-28T12:12:06.088Z,11.21
2022-12-28T12:14:41.982Z,10.70
2022-12-28T12:17:14.435Z,10.44
2022-12-28T12:19:48.251Z,10.49
2022-12-28T12:22:21.169Z,10.87
2022-12-28T12:24:54.932Z,11.27
2022-12-28T12:27:39.456Z,11.48
2022-12-28T12:30:15.608Z,11.12
2022-12-28T12:32:56.637Z,11.20
2022-12-28T12:35:28.709Z,10.96
2022-12-28T12:38:13.273Z,10.82
2022-12-28T12:40:42.533Z,11.31
2022-12-28T12:43:27.175Z,11.24
2022-12-28T12:46:09.010Z,11.00
2022-12-28T12:48:57.432Z,10.61
2022-12-28T12:52:01.539Z,11.25
2022-12-28T12:54:52.987Z,11.35
2022-12-28T12:57:47.639Z,10.97
2022-12-28T13:00:17.063Z,11.34
2022-12-28T13:03:09.612Z,10.96
2022-12-28T13:05:41.539Z,11.52
2022-12-28T13:08:21.670Z,11.52
2022-12-28T13:10:48.537Z,11.17
2022-12-28T13:13:32.660Z,11.73
2022-12-28T13:16:04.790Z,11.46
2022-12-28T13:18:44.530Z,11.32
2022-12-28T13:21:20.331Z,11.41
2022-12-28T13:23:47.333Z,11.75
2022-12-28T13:26:15.706Z,11.48
2022-12-28T13:28:55.799Z,11.57
2022-12-28T13:31:25.320Z,11.65
2022-12-28T13:34:35.991Z,11.56
2022-12-28T13:37:13.825Z,11.40
2022-12-28T13:39:42.440Z,11.66
2022-12-28T13:42:17.371Z,11.53
2022-12-28T13:45:01.679Z,11.64
2022-12-28T13:47:38.394Z,11.44
2022-12-28T13:50:10.805Z,11.27
2022-12-28T13:52:45.518Z,11.70
2022-12-28T13:55:18.517Z,11.39
2022-12-28T13:57:54.178Z,11.36
2022-12-28T14:00:24.218Z,11.60
2022-12-28T14:02:55.481Z,11.66
2022-12-28T14:05:25.839Z,11.44
2022-12-28T14:07:54.652Z,11.17
2022-12-28T14:10:21.998Z,11.78
2022-12-28T14:12:49.753Z,11.86
2022-12-28T14:15:17.148Z,11.29
2022-12-28T14:17:46.531Z,11.23
2022-12-28T14:20:13.272Z,11.77
2022-12-28T14:22:40.960Z,11.81
2022-12-28T14:25:14.072Z,11.62
2022-12-28T14:27:44.695Z,11.53
2022-12-28T14:30:23.569Z,11.18
2022-12-28T14:32:50.434Z,10.94
2022-12-28T14:35:21.158Z,11.41
2022-12-28T14:37:52.988Z,11.56
2022-12-28T14:40:32.454Z,11.09
2022-12-28T14:43:17.696Z,11.32
2022-12-28T14:46:07.692Z,11.21
2022-12-28T14:48:40.155Z,11.64
2022-12-28T14:51:26.992Z,11.48
2022-12-28T14:54:11.729Z,11.91
2022-12-28T14:56:38.929Z,11.26
2022-12-28T14:59:13.662Z,11.48
2022-12-28T15:01:41.820Z,11.29
2022-12-28T15:04:24.741Z,11.70
2022-12-28T15:06:51.173Z,11.59
2022-12-28T15:09:17.715Z,11.35
2022-12-28T15:11:45.981Z,11.39
2022-12-28T15:14:12.806Z,11.52
2022-12-28T15:16:39.315Z,11.17
2022-12-28T15:19:05.843Z,11.30
2022-12-28T15:21:33.381Z,11.14
2022-12-28T15:23:59.817Z,11.03
2022-12-28T15:26:29.148Z,10.56
2022-12-28T15:28:55.583Z,11.46
2022-12-28T15:31:22.231Z,11.49
2022-12-28T15:33:49.031Z,11.66
2022-12-28T15:36:18.567Z,11.38
2022-12-28T15:38:48.999Z,11.65
2022-12-28T15:41:35.117Z,11.31
2022-12-28T15:44:01.956Z,11.14
2022-12-28T15:46:28.542Z,11.14
2022-12-28T15:48:55.076Z,11.32
2022-12-28T15:51:21.501Z,11.66
2022-12-28T15:53:47.922Z,11.50
2022-12-28T15:56:27.743Z,11.38
2022-12-28T15:58:56.546Z,11.48
2022-12-28T16:01:24.826Z,11.41
2022-12-28T16:03:52.943Z,11.51
2022-12-28T16:06:20.909Z,11.35
2022-12-28T16:08:48.220Z,11.65
2022-12-28T16:11:17.450Z,11.39
2022-12-28T16:13:49.766Z,11.49
2022-12-28T16:16:16.220Z,11.64
2022-12-28T16:18:42.700Z,11.00
2022-12-28T16:21:10.887Z,11.51
2022-12-28T16:23:39.768Z,11.42
2022-12-28T16:26:07.430Z,11.60
2022-12-28T16:28:34.385Z,11.53
2022-12-28T16:31:01.385Z,11.23
2022-12-28T16:33:28.022Z,11.79
2022-12-28T16:35:59.289Z,11.37
2022-12-28T16:38:28.803Z,11.07
2022-12-28T16:40:56.487Z,11.31
2022-12-28T16:43:23.350Z,11.37
2022-12-28T16:45:49.836Z,11.47
2022-12-28T16:48:16.893Z,11.57
2022-12-28T16:50:43.319Z,11.64
2022-12-28T16:53:09.818Z,11.72
2022-12-28T16:55:42.146Z,10.99
2022-12-28T16:58:09.869Z,11.08
2022-12-28T17:00:36.653Z,11.12
2022-12-28T17:03:03.357Z,11.47
2022-12-28T17:05:34.642Z,11.13
2022-12-28T17:08:02.244Z,11.35
2022-12-28T17:10:29.490Z,11.37
2022-12-28T17:12:56.051Z,11.35
2022-12-28T17:15:23.437Z,11.24
2022-12-28T17:17:50.202Z,11.60
2022-12-28T17:20:16.855Z,11.34
2022-12-28T17:22:43.340Z,11.25
2022-12-28T17:25:09.748Z,11.13
2022-12-28T17:27:36.236Z,11.39
2022-12-28T17:30:02.661Z,11.43
2022-12-28T17:32:29.125Z,11.53
2022-12-28T17:34:55.633Z,11.10
2022-12-28T17:37:22.110Z,11.34
2022-12-28T17:39:48.532Z,11.46
2022-12-28T17:42:14.936Z,11.47
2022-12-28T17:44:41.368Z,11.38
2022-12-28T17:47:08.384Z,11.53
2022-12-28T17:49:34.834Z,11.74
2022-12-28T17:52:01.273Z,11.26
2022-12-28T17:54:27.795Z,11.63
2022-12-28T17:56:54.189Z,11.40
2022-12-28T17:59:20.659Z,11.19
2022-12-28T18:01:47.145Z,11.06
2022-12-28T18:04:14.307Z,10.81
2022-12-28T18:06:40.853Z,10.92
2022-12-28T18:09:07.265Z,11.08
2022-12-28T18:11:33.788Z,10.90
2022-12-28T18:14:00.220Z,10.99
2022-12-28T18:16:27.761Z,11.50
2022-12-28T18:18:54.367Z,11.61
2022-12-28T18:21:23.013Z,11.01
2022-12-28T18:23:51.940Z,11.63
2022-12-28T18:26:26.225Z,11.40
2022-12-28T18:28:54.438Z,11.56
2022-12-28T18:31:21.351Z,11.55
2022-12-28T18:33:48.359Z,11.15
2022-12-28T18:36:17.722Z,11.59
2022-12-28T18:38:47.387Z,11.31
2022-12-28T18:41:16.314Z,11.62
2022-12-28T18:43:43.046Z,11.66
2022-12-28T18:46:09.717Z,11.50
2022-12-28T18:48:39.032Z,11.63
2022-12-28T18:51:08.315Z,11.43
2022-12-28T18:53:35.578Z,11.67
2022-12-28T18:56:01.911Z,11.34
2022-12-28T18:58:30.599Z,11.46
2022-12-28T19:01:13.070Z,11.61
2022-12-28T19:04:00.604Z,11.07
2022-12-28T19:06:27.436Z,11.37
2022-12-28T19:08:59.745Z,11.26
2022-12-28T19:11:26.420Z,11.26
2022-12-28T19:13:52.844Z,11.34
2022-12-28T19:16:24.593Z,11.12
2022-12-28T19:18:57.041Z,11.59
2022-12-28T19:21:34.835Z,11.47
2022-12-28T19:24:10.035Z,11.49
2022-12-28T19:26:36.465Z,11.24
2022-12-28T19:29:03.923Z,11.31
2022-12-28T19:31:31.119Z,11.50
2022-12-28T19:33:57.890Z,11.74
2022-12-28T19:36:25.167Z,11.69
2022-12-28T19:38:55.544Z,11.57
2022-12-28T19:41:22.809Z,11.68
2022-12-28T19:43:49.361Z,11.49
2022-12-28T19:46:18.137Z,11.55
2022-12-28T19:48:45.397Z,11.35
2022-12-28T19:51:12.354Z,11.52
2022-12-28T19:53:38.792Z,11.67
2022-12-28T19:56:06.523Z,11.54
2022-12-28T19:58:34.801Z,11.85
2022-12-28T20:01:13.539Z,11.62
2022-12-28T20:03:40.761Z,11.34
2022-12-28T20:06:13.263Z,11.51
2022-12-28T20:08:40.316Z,11.59
2022-12-28T20:11:06.788Z,11.79
2022-12-28T20:13:34.325Z,11.67
2022-12-28T20:16:00.813Z,11.29
2022-12-28T20:18:27.309Z,11.85
2022-12-28T20:23:46.013Z,11.56
2022-12-28T20:26:12.580Z,12.01
2022-12-28T20:28:39.016Z,11.54
2022-12-28T20:31:07.679Z,11.66
2022-12-28T20:33:37.092Z,11.62
2022-12-28T20:36:06.975Z,11.71
2022-12-28T20:38:34.472Z,11.65
2022-12-28T20:41:39.427Z,11.79
2022-12-28T20:44:11.779Z,11.84
2022-12-28T20:46:38.298Z,11.87
2022-12-28T20:49:06.104Z,11.88
2022-12-28T20:51:33.579Z,11.84
2022-12-28T20:54:00.140Z,11.86
2022-12-28T20:56:27.058Z,11.75
2022-12-28T20:58:53.818Z,11.88
2022-12-28T21:01:21.228Z,11.80
2022-12-28T21:03:47.941Z,11.59
2022-12-28T21:06:15.087Z,11.93
2022-12-28T21:08:41.569Z,11.59
2022-12-28T21:11:08.147Z,11.69
2022-12-28T21:13:37.996Z,11.57
2022-12-28T21:16:07.688Z,11.44
2022-12-28T21:18:35.580Z,11.83
2022-12-28T21:21:02.758Z,11.67
2022-12-28T21:23:30.796Z,11.34
2022-12-28T21:26:04.712Z,11.75
2022-12-28T21:28:31.436Z,11.60
2022-12-28T21:30:58.275Z,11.78
2022-12-28T21:33:24.788Z,11.93
2022-12-28T21:36:19.166Z,11.54
2022-12-28T21:38:47.623Z,11.62
2022-12-28T21:41:16.984Z,11.84
2022-12-28T21:43:43.459Z,11.81
2022-12-28T21:46:14.573Z,11.50
2022-12-28T21:48:42.250Z,11.57
2022-12-28T21:51:32.222Z,11.89
2022-12-28T21:54:00.845Z,11.41
2022-12-28T21:56:28.456Z,11.57
2022-12-28T21:58:55.493Z,11.49
2022-12-28T22:01:41.068Z,11.62
2022-12-28T22:04:27.508Z,11.71
2022-12-28T22:06:53.914Z,11.78
2022-12-28T22:09:38.807Z,11.62
2022-12-28T22:12:24.238Z,11.15
2022-12-28T22:15:11.717Z,11.50
2022-12-28T22:17:38.110Z,11.63
2022-12-28T22:20:04.913Z,11.91
2022-12-28T22:22:31.344Z,12.03
2022-12-28T22:24:57.750Z,11.95
2022-12-28T22:27:24.201Z,11.67
2022-12-28T22:29:50.665Z,12.03
2022-12-28T22:32:17.148Z,12.05
2022-12-28T22:34:43.600Z,11.82
2022-12-28T22:37:10.047Z,12.06
2022-12-28T22:39:36.488Z,12.15
2022-12-28T22:42:02.974Z,11.71
2022-12-28T22:44:29.406Z,11.91
2022-12-28T22:46:55.850Z,11.87
2022-12-28T22:49:22.275Z,11.73
2022-12-28T22:51:48.804Z,11.94
2022-12-28T22:54:15.288Z,11.87
2022-12-28T22:56:41.686Z,12.22
2022-12-28T22:59:13.661Z,11.96
2022-12-28T23:01:42.290Z,12.20
2022-12-28T23:04:09.011Z,12.15
2022-12-28T23:06:35.559Z,11.23
2022-12-28T23:09:02.029Z,11.53
2022-12-28T23:11:37.451Z,11.99
2022-12-28T23:14:25.571Z,11.94
2022-12-28T23:16:52.327Z,12.22
2022-12-28T23:19:37.635Z,12.21
2022-12-28T23:22:24.620Z,12.29
2022-12-28T23:25:09.814Z,12.43
2022-12-28T23:27:39.423Z,12.77
2022-12-28T23:30:08.860Z,12.25
2022-12-28T23:32:35.304Z,12.22
2022-12-28T23:35:02.321Z,12.08
2022-12-28T23:37:28.731Z,11.52
2022-12-28T23:39:55.169Z,11.97
2022-12-28T23:42:21.821Z,12.53
2022-12-28T23:44:49.592Z,11.61
2022-12-28T23:47:17.396Z,12.23
2022-12-28T23:49:43.920Z,12.54
2022-12-28T23:52:10.708Z,11.31
2022-12-28T23:54:37.133Z,12.30
2022-12-28T23:57:03.698Z,12.08
2022-12-28T23:59:30.104Z,11.74
